CEB571 RPLL-RPVM
Flight info
| Callsign | CEB571 |
|---|---|
| Flight time | 0h 57m |
| Altitude | 37000 |
| Route | IPATA2R IPATA W25 BATAY BATAY3P |
| Aircraft | A339/H-SADE1E2E3GHIJ3J5M1P2RWXY/LB2D1 |
Departure
| Time | 2026-04-30 07:41 |
|---|---|
| Airport | Ninoy Aquino International Airport (RPLL) |
Arrival
| Time | 2026-04-30 08:39 |
|---|---|
| Airport | Mactan Cebu International Airport (RPVM) |
| Time | Latitude | Longitude | Altitude | Speed | Heading |
|---|---|---|---|---|---|
| 2026-04-30 07:07 | 14.51796 | 121.01363 | 90 ft | 0 kts | 46° |
| 2026-04-30 07:16 | 14.51796 | 121.01362 | 90 ft | 0 kts | 46° |
| 2026-04-30 07:19 | 14.51792 | 121.01358 | 90 ft | 2 kts | 50° |
| 2026-04-30 07:19 | 14.51782 | 121.01346 | 90 ft | 2 kts | 47° |
| 2026-04-30 07:19 | 14.51772 | 121.01335 | 90 ft | 2 kts | 44° |
| 2026-04-30 07:20 | 14.51761 | 121.01324 | 90 ft | 2 kts | 45° |
| 2026-04-30 07:20 | 14.51750 | 121.01313 | 90 ft | 2 kts | 45° |
| 2026-04-30 07:20 | 14.51741 | 121.01304 | 90 ft | 1 kts | 55° |
| 2026-04-30 07:20 | 14.51738 | 121.01295 | 90 ft | 1 kts | 96° |
| 2026-04-30 07:21 | 14.51740 | 121.01288 | 90 ft | 0 kts | 128° |
| 2026-04-30 07:21 | 14.51743 | 121.01284 | 90 ft | 0 kts | 135° |
| 2026-04-30 07:25 | 14.51742 | 121.01284 | 90 ft | 0 kts | 135° |
| 2026-04-30 07:25 | 14.51738 | 121.01289 | 90 ft | 2 kts | 131° |
| 2026-04-30 07:25 | 14.51723 | 121.01308 | 90 ft | 4 kts | 128° |
| 2026-04-30 07:26 | 14.51698 | 121.01336 | 90 ft | 6 kts | 135° |
| 2026-04-30 07:26 | 14.51664 | 121.01373 | 90 ft | 8 kts | 133° |
| 2026-04-30 07:26 | 14.51622 | 121.01419 | 90 ft | 9 kts | 134° |
| 2026-04-30 07:26 | 14.51589 | 121.01453 | 90 ft | 0 kts | 134° |
| 2026-04-30 07:27 | 14.51589 | 121.01454 | 90 ft | 0 kts | 134° |
| 2026-04-30 07:27 | 14.51587 | 121.01456 | 90 ft | 0 kts | 134° |
| 2026-04-30 07:28 | 14.51586 | 121.01457 | 90 ft | 1 kts | 134° |
| 2026-04-30 07:28 | 14.51571 | 121.01472 | 90 ft | 4 kts | 134° |
| 2026-04-30 07:28 | 14.51544 | 121.01500 | 90 ft | 6 kts | 135° |
| 2026-04-30 07:28 | 14.51507 | 121.01538 | 90 ft | 8 kts | 135° |
| 2026-04-30 07:29 | 14.51461 | 121.01585 | 90 ft | 10 kts | 135° |
| 2026-04-30 07:29 | 14.51400 | 121.01648 | 90 ft | 13 kts | 134° |
| 2026-04-30 07:29 | 14.51324 | 121.01726 | 90 ft | 16 kts | 135° |
| 2026-04-30 07:29 | 14.51240 | 121.01814 | 90 ft | 17 kts | 134° |
| 2026-04-30 07:30 | 14.51082 | 121.01975 | 90 ft | 7 kts | 146° |
| 2026-04-30 07:30 | 14.51037 | 121.01965 | 90 ft | 8 kts | 216° |
| 2026-04-30 07:30 | 14.50995 | 121.01907 | 90 ft | 11 kts | 240° |
| 2026-04-30 07:31 | 14.50947 | 121.01822 | 90 ft | 14 kts | 239° |
| 2026-04-30 07:31 | 14.50895 | 121.01730 | 90 ft | 15 kts | 241° |
| 2026-04-30 07:31 | 14.50835 | 121.01621 | 90 ft | 17 kts | 240° |
| 2026-04-30 07:31 | 14.50768 | 121.01502 | 90 ft | 20 kts | 240° |
| 2026-04-30 07:32 | 14.50698 | 121.01376 | 90 ft | 20 kts | 240° |
| 2026-04-30 07:32 | 14.50622 | 121.01237 | 90 ft | 22 kts | 241° |
| 2026-04-30 07:32 | 14.50543 | 121.01094 | 90 ft | 22 kts | 240° |
| 2026-04-30 07:32 | 14.50468 | 121.00957 | 90 ft | 21 kts | 239° |
| 2026-04-30 07:33 | 14.50390 | 121.00821 | 90 ft | 22 kts | 240° |
| 2026-04-30 07:33 | 14.50314 | 121.00680 | 90 ft | 22 kts | 240° |
| 2026-04-30 07:33 | 14.50238 | 121.00545 | 90 ft | 21 kts | 239° |
| 2026-04-30 07:33 | 14.50163 | 121.00410 | 90 ft | 21 kts | 240° |
| 2026-04-30 07:34 | 14.50089 | 121.00276 | 90 ft | 21 kts | 240° |
| 2026-04-30 07:34 | 14.50020 | 121.00155 | 90 ft | 7 kts | 241° |
| 2026-04-30 07:34 | 14.50001 | 121.00120 | 90 ft | 8 kts | 241° |
| 2026-04-30 07:34 | 14.49970 | 121.00063 | 90 ft | 9 kts | 241° |
| 2026-04-30 07:35 | 14.49950 | 121.00024 | 90 ft | 0 kts | 240° |
| 2026-04-30 07:35 | 14.49948 | 121.00021 | 90 ft | 0 kts | 240° |
| 2026-04-30 07:35 | 14.49947 | 121.00021 | 90 ft | 0 kts | 240° |
| 2026-04-30 07:36 | 14.49940 | 121.00008 | 90 ft | 3 kts | 240° |
| 2026-04-30 07:36 | 14.49925 | 120.99981 | 90 ft | 3 kts | 237° |
| 2026-04-30 07:36 | 14.49902 | 120.99965 | 90 ft | 4 kts | 193° |
| 2026-04-30 07:36 | 14.49884 | 120.99970 | 90 ft | 0 kts | 157° |
| 2026-04-30 07:38 | 14.49883 | 120.99970 | 90 ft | 0 kts | 157° |
| 2026-04-30 07:38 | 14.49871 | 120.99975 | 90 ft | 2 kts | 157° |
| 2026-04-30 07:39 | 14.49846 | 120.99986 | 90 ft | 4 kts | 153° |
| 2026-04-30 07:39 | 14.49814 | 121.00011 | 90 ft | 6 kts | 125° |
| 2026-04-30 07:39 | 14.49814 | 121.00059 | 90 ft | 7 kts | 73° |
| 2026-04-30 07:39 | 14.49835 | 121.00104 | 90 ft | 0 kts | 62° |
| 2026-04-30 07:40 | 14.49836 | 121.00105 | 90 ft | 0 kts | 62° |
| 2026-04-30 07:40 | 14.49850 | 121.00133 | 90 ft | 23 kts | 62° |
| 2026-04-30 07:40 | 14.50043 | 121.00485 | 90 ft | 89 kts | 60° |
| 2026-04-30 07:41 | 14.50459 | 121.01231 | 90 ft | 145 kts | 60° |
| 2026-04-30 07:41 | 14.51013 | 121.02234 | 289 ft | 171 kts | 63° |
| 2026-04-30 07:41 | 14.51605 | 121.03326 | 737 ft | 180 kts | 62° |
| 2026-04-30 07:41 | 14.52205 | 121.04467 | 1293 ft | 186 kts | 63° |
| 2026-04-30 07:42 | 14.52812 | 121.05618 | 2004 ft | 182 kts | 61° |
| 2026-04-30 07:42 | 14.53446 | 121.06768 | 2363 ft | 191 kts | 60° |
| 2026-04-30 07:42 | 14.54134 | 121.08006 | 2635 ft | 206 kts | 60° |
| 2026-04-30 07:42 | 14.54878 | 121.09344 | 2916 ft | 222 kts | 60° |
| 2026-04-30 07:43 | 14.55671 | 121.10769 | 3201 ft | 239 kts | 60° |
| 2026-04-30 07:43 | 14.56521 | 121.12307 | 3494 ft | 256 kts | 63° |
| 2026-04-30 07:43 | 14.57187 | 121.14077 | 3976 ft | 265 kts | 76° |
| 2026-04-30 07:43 | 14.57216 | 121.15953 | 4576 ft | 270 kts | 104° |
| 2026-04-30 07:44 | 14.56347 | 121.17643 | 5229 ft | 274 kts | 131° |
| 2026-04-30 07:44 | 14.54933 | 121.18973 | 5891 ft | 277 kts | 137° |
| 2026-04-30 07:44 | 14.53468 | 121.20280 | 6564 ft | 280 kts | 137° |
| 2026-04-30 07:44 | 14.51986 | 121.21613 | 7249 ft | 282 kts | 137° |
| 2026-04-30 07:45 | 14.50507 | 121.22950 | 7949 ft | 284 kts | 136° |
| 2026-04-30 07:45 | 14.49026 | 121.24297 | 8653 ft | 286 kts | 136° |
| 2026-04-30 07:45 | 14.47541 | 121.25653 | 9339 ft | 288 kts | 136° |
| 2026-04-30 07:45 | 14.46031 | 121.27034 | 9993 ft | 291 kts | 136° |
| 2026-04-30 07:46 | 14.44513 | 121.28423 | 10539 ft | 299 kts | 136° |
| 2026-04-30 07:46 | 14.42909 | 121.29894 | 10834 ft | 316 kts | 136° |
| 2026-04-30 07:46 | 14.41238 | 121.31424 | 11281 ft | 326 kts | 136° |
| 2026-04-30 07:46 | 14.39526 | 121.32990 | 11937 ft | 329 kts | 136° |
| 2026-04-30 07:47 | 14.37831 | 121.34541 | 12569 ft | 332 kts | 136° |
| 2026-04-30 07:47 | 14.36099 | 121.36124 | 13187 ft | 335 kts | 136° |
| 2026-04-30 07:47 | 14.34342 | 121.37732 | 13790 ft | 338 kts | 136° |
| 2026-04-30 07:47 | 14.32581 | 121.39342 | 14379 ft | 341 kts | 136° |
| 2026-04-30 07:48 | 14.30785 | 121.40985 | 14937 ft | 345 kts | 136° |
| 2026-04-30 07:48 | 14.29004 | 121.42614 | 15516 ft | 349 kts | 137° |
| 2026-04-30 07:48 | 14.27167 | 121.44293 | 16126 ft | 352 kts | 137° |
| 2026-04-30 07:48 | 14.25326 | 121.45976 | 16744 ft | 354 kts | 137° |
| 2026-04-30 07:49 | 14.23479 | 121.47665 | 17322 ft | 357 kts | 137° |
| 2026-04-30 07:49 | 14.21631 | 121.49352 | 17882 ft | 360 kts | 137° |
| 2026-04-30 07:49 | 14.19736 | 121.51083 | 18444 ft | 363 kts | 137° |
| 2026-04-30 07:49 | 14.17845 | 121.52811 | 18996 ft | 367 kts | 137° |
| 2026-04-30 07:50 | 14.15939 | 121.54552 | 19524 ft | 370 kts | 137° |
| 2026-04-30 07:50 | 14.14000 | 121.56323 | 20055 ft | 373 kts | 137° |
| 2026-04-30 07:50 | 14.12057 | 121.58095 | 20568 ft | 376 kts | 137° |
| 2026-04-30 07:50 | 14.10076 | 121.59902 | 21066 ft | 379 kts | 137° |
| 2026-04-30 07:51 | 14.08119 | 121.61688 | 21549 ft | 382 kts | 137° |
| 2026-04-30 07:51 | 14.06128 | 121.63504 | 22010 ft | 385 kts | 137° |
| 2026-04-30 07:51 | 14.04112 | 121.65342 | 22468 ft | 388 kts | 138° |
| 2026-04-30 07:51 | 14.02074 | 121.67201 | 22933 ft | 391 kts | 138° |
| 2026-04-30 07:52 | 14.00020 | 121.69076 | 23383 ft | 394 kts | 138° |
| 2026-04-30 07:52 | 13.97979 | 121.70938 | 23823 ft | 398 kts | 139° |
| 2026-04-30 07:52 | 13.95891 | 121.72842 | 24261 ft | 401 kts | 139° |
| 2026-04-30 07:52 | 13.93795 | 121.74752 | 24699 ft | 404 kts | 139° |
| 2026-04-30 07:53 | 13.91690 | 121.76670 | 25117 ft | 407 kts | 139° |
| 2026-04-30 07:53 | 13.89543 | 121.78624 | 25545 ft | 410 kts | 139° |
| 2026-04-30 07:53 | 13.87394 | 121.80560 | 25959 ft | 413 kts | 140° |
| 2026-04-30 07:53 | 13.85122 | 121.82417 | 26358 ft | 416 kts | 144° |
| 2026-04-30 07:54 | 13.82798 | 121.84178 | 26761 ft | 419 kts | 144° |
| 2026-04-30 07:54 | 13.80427 | 121.85963 | 27168 ft | 421 kts | 144° |
| 2026-04-30 07:54 | 13.78064 | 121.87739 | 27562 ft | 424 kts | 144° |
| 2026-04-30 07:54 | 13.75661 | 121.89548 | 27953 ft | 427 kts | 144° |
| 2026-04-30 07:55 | 13.73251 | 121.91363 | 28334 ft | 430 kts | 144° |
| 2026-04-30 07:55 | 13.70865 | 121.93162 | 28700 ft | 432 kts | 144° |
| 2026-04-30 07:55 | 13.68411 | 121.95011 | 29097 ft | 434 kts | 144° |
| 2026-04-30 07:55 | 13.65984 | 121.96839 | 29500 ft | 435 kts | 144° |
| 2026-04-30 07:56 | 13.63500 | 121.98711 | 29906 ft | 437 kts | 144° |
| 2026-04-30 07:56 | 13.61059 | 122.00549 | 30293 ft | 438 kts | 144° |
| 2026-04-30 07:56 | 13.58611 | 122.02393 | 30679 ft | 439 kts | 144° |
| 2026-04-30 07:56 | 13.56137 | 122.04256 | 31042 ft | 441 kts | 145° |
| 2026-04-30 07:57 | 13.53671 | 122.06112 | 31394 ft | 442 kts | 145° |
| 2026-04-30 07:57 | 13.51629 | 122.07649 | 31668 ft | 444 kts | 145° |
| 2026-04-30 07:57 | 13.49133 | 122.09527 | 31995 ft | 446 kts | 145° |
| 2026-04-30 07:58 | 13.48452 | 122.10040 | 32086 ft | 447 kts | 145° |
| 2026-04-30 07:58 | 13.47252 | 122.10941 | 32245 ft | 447 kts | 145° |
| 2026-04-30 07:58 | 13.44740 | 122.12830 | 32578 ft | 449 kts | 145° |
| 2026-04-30 07:58 | 13.42206 | 122.14735 | 32929 ft | 451 kts | 145° |
| 2026-04-30 07:59 | 13.39646 | 122.16660 | 33263 ft | 454 kts | 145° |
| 2026-04-30 07:59 | 13.37091 | 122.18579 | 33578 ft | 456 kts | 145° |
| 2026-04-30 07:59 | 13.34525 | 122.20506 | 33894 ft | 459 kts | 145° |
| 2026-04-30 08:00 | 13.29396 | 122.24356 | 34806 ft | 458 kts | 144° |
| 2026-04-30 08:00 | 13.26806 | 122.26302 | 35310 ft | 456 kts | 144° |
| 2026-04-30 08:00 | 13.24260 | 122.28213 | 35726 ft | 455 kts | 144° |
| 2026-04-30 08:00 | 13.21689 | 122.30141 | 36022 ft | 457 kts | 144° |
| 2026-04-30 08:01 | 13.19113 | 122.32072 | 36255 ft | 460 kts | 144° |
| 2026-04-30 08:01 | 13.16519 | 122.34017 | 36515 ft | 462 kts | 144° |
| 2026-04-30 08:01 | 13.13950 | 122.35943 | 36792 ft | 463 kts | 144° |
| 2026-04-30 08:01 | 13.11312 | 122.37920 | 36859 ft | 465 kts | 144° |
| 2026-04-30 08:02 | 13.03482 | 122.43785 | 36861 ft | 465 kts | 144° |
| 2026-04-30 08:03 | 12.93036 | 122.51605 | 36860 ft | 464 kts | 144° |
| 2026-04-30 08:04 | 12.87812 | 122.55513 | 36863 ft | 464 kts | 144° |
| 2026-04-30 08:04 | 12.82598 | 122.59410 | 36862 ft | 464 kts | 144° |
| 2026-04-30 08:05 | 12.77374 | 122.63313 | 36861 ft | 464 kts | 144° |
| 2026-04-30 08:05 | 12.72168 | 122.67200 | 36862 ft | 464 kts | 144° |
| 2026-04-30 08:06 | 12.66953 | 122.71094 | 36862 ft | 464 kts | 144° |
| 2026-04-30 08:06 | 12.61711 | 122.75005 | 36862 ft | 463 kts | 144° |
| 2026-04-30 08:07 | 12.56545 | 122.78858 | 36862 ft | 463 kts | 144° |
| 2026-04-30 08:07 | 12.51353 | 122.82731 | 36862 ft | 463 kts | 144° |
| 2026-04-30 08:08 | 12.46151 | 122.86608 | 36860 ft | 462 kts | 144° |
| 2026-04-30 08:08 | 12.40919 | 122.90507 | 36861 ft | 462 kts | 144° |
| 2026-04-30 08:09 | 12.36981 | 122.93442 | 36862 ft | 462 kts | 144° |
| 2026-04-30 08:09 | 12.31775 | 122.97315 | 36861 ft | 462 kts | 144° |
| 2026-04-30 08:10 | 12.26603 | 123.01145 | 36863 ft | 462 kts | 144° |
| 2026-04-30 08:10 | 12.21372 | 123.05023 | 36862 ft | 461 kts | 144° |
| 2026-04-30 08:11 | 12.16171 | 123.08884 | 36864 ft | 461 kts | 144° |
| 2026-04-30 08:11 | 12.10995 | 123.12723 | 36864 ft | 461 kts | 144° |
| 2026-04-30 08:12 | 12.05802 | 123.16576 | 36861 ft | 460 kts | 144° |
| 2026-04-30 08:12 | 12.00628 | 123.20406 | 36427 ft | 461 kts | 144° |
| 2026-04-30 08:12 | 11.98027 | 123.22332 | 35212 ft | 472 kts | 144° |
| 2026-04-30 08:13 | 11.95331 | 123.24329 | 33511 ft | 490 kts | 144° |
| 2026-04-30 08:13 | 11.92563 | 123.26381 | 32504 ft | 490 kts | 144° |
| 2026-04-30 08:13 | 11.89815 | 123.28415 | 31339 ft | 493 kts | 144° |
| 2026-04-30 08:13 | 11.87011 | 123.30489 | 29806 ft | 503 kts | 143° |
| 2026-04-30 08:14 | 11.84154 | 123.32600 | 28341 ft | 510 kts | 143° |
| 2026-04-30 08:14 | 11.81336 | 123.34686 | 27417 ft | 496 kts | 143° |
| 2026-04-30 08:14 | 11.78581 | 123.36726 | 27116 ft | 481 kts | 143° |
| 2026-04-30 08:14 | 11.75911 | 123.38705 | 26801 ft | 472 kts | 143° |
| 2026-04-30 08:15 | 11.73280 | 123.40654 | 26436 ft | 464 kts | 143° |
| 2026-04-30 08:15 | 11.70672 | 123.42584 | 26052 ft | 457 kts | 143° |
| 2026-04-30 08:15 | 11.68123 | 123.44469 | 25669 ft | 450 kts | 142° |
| 2026-04-30 08:15 | 11.65584 | 123.46347 | 25279 ft | 443 kts | 142° |
| 2026-04-30 08:16 | 11.63120 | 123.48170 | 24896 ft | 437 kts | 142° |
| 2026-04-30 08:16 | 11.60670 | 123.49981 | 24548 ft | 431 kts | 142° |
| 2026-04-30 08:16 | 11.58265 | 123.51758 | 24181 ft | 425 kts | 142° |
| 2026-04-30 08:16 | 11.55867 | 123.53528 | 23784 ft | 420 kts | 142° |
| 2026-04-30 08:17 | 11.53513 | 123.55267 | 23403 ft | 415 kts | 142° |
| 2026-04-30 08:17 | 11.51200 | 123.56976 | 23032 ft | 410 kts | 142° |
| 2026-04-30 08:17 | 11.48898 | 123.58675 | 22659 ft | 406 kts | 142° |
| 2026-04-30 08:17 | 11.46625 | 123.60353 | 22283 ft | 402 kts | 142° |
| 2026-04-30 08:18 | 11.44378 | 123.62013 | 21913 ft | 398 kts | 142° |
| 2026-04-30 08:18 | 11.42136 | 123.63665 | 21542 ft | 394 kts | 142° |
| 2026-04-30 08:18 | 11.39943 | 123.65283 | 21168 ft | 390 kts | 142° |
| 2026-04-30 08:18 | 11.37719 | 123.66924 | 20791 ft | 387 kts | 142° |
| 2026-04-30 08:19 | 11.35562 | 123.68515 | 20427 ft | 384 kts | 142° |
| 2026-04-30 08:19 | 11.33398 | 123.70110 | 20058 ft | 381 kts | 141° |
| 2026-04-30 08:19 | 11.31265 | 123.71684 | 19698 ft | 378 kts | 142° |
| 2026-04-30 08:19 | 11.29132 | 123.73256 | 19331 ft | 375 kts | 142° |
| 2026-04-30 08:20 | 11.27041 | 123.74798 | 18964 ft | 372 kts | 141° |
| 2026-04-30 08:20 | 11.24931 | 123.76355 | 18582 ft | 369 kts | 141° |
| 2026-04-30 08:20 | 11.22871 | 123.77873 | 18230 ft | 366 kts | 141° |
| 2026-04-30 08:20 | 11.20824 | 123.79382 | 17868 ft | 364 kts | 141° |
| 2026-04-30 08:21 | 11.18777 | 123.80890 | 17492 ft | 362 kts | 141° |
| 2026-04-30 08:21 | 11.16730 | 123.82398 | 17135 ft | 360 kts | 141° |
| 2026-04-30 08:21 | 11.14571 | 123.83689 | 16753 ft | 363 kts | 158° |
| 2026-04-30 08:21 | 11.12044 | 123.84016 | 16383 ft | 370 kts | 182° |
| 2026-04-30 08:22 | 11.09527 | 123.83425 | 16033 ft | 371 kts | 193° |
| 2026-04-30 08:22 | 11.07057 | 123.82691 | 15666 ft | 370 kts | 193° |
| 2026-04-30 08:22 | 11.04582 | 123.81969 | 15310 ft | 368 kts | 193° |
| 2026-04-30 08:22 | 11.02139 | 123.81267 | 14953 ft | 366 kts | 193° |
| 2026-04-30 08:23 | 10.99660 | 123.80566 | 14606 ft | 364 kts | 193° |
| 2026-04-30 08:23 | 10.97222 | 123.79880 | 14255 ft | 362 kts | 193° |
| 2026-04-30 08:23 | 10.94799 | 123.79203 | 13908 ft | 360 kts | 193° |
| 2026-04-30 08:23 | 10.92387 | 123.78528 | 13572 ft | 358 kts | 193° |
| 2026-04-30 08:24 | 10.89990 | 123.77858 | 13223 ft | 356 kts | 192° |
| 2026-04-30 08:24 | 10.87619 | 123.77196 | 12882 ft | 354 kts | 192° |
| 2026-04-30 08:24 | 10.85234 | 123.76530 | 12541 ft | 352 kts | 192° |
| 2026-04-30 08:24 | 10.82854 | 123.75868 | 12193 ft | 350 kts | 192° |
| 2026-04-30 08:25 | 10.80524 | 123.75218 | 11855 ft | 348 kts | 192° |
| 2026-04-30 08:25 | 10.78194 | 123.74569 | 11517 ft | 346 kts | 192° |
| 2026-04-30 08:25 | 10.75866 | 123.73919 | 11177 ft | 344 kts | 192° |
| 2026-04-30 08:25 | 10.73546 | 123.73271 | 10844 ft | 342 kts | 192° |
| 2026-04-30 08:26 | 10.71266 | 123.72636 | 10522 ft | 340 kts | 192° |
| 2026-04-30 08:26 | 10.68983 | 123.72000 | 10203 ft | 338 kts | 192° |
| 2026-04-30 08:26 | 10.66743 | 123.71375 | 10052 ft | 329 kts | 192° |
| 2026-04-30 08:26 | 10.64555 | 123.70763 | 10032 ft | 317 kts | 192° |
| 2026-04-30 08:27 | 10.62468 | 123.70181 | 9991 ft | 306 kts | 191° |
| 2026-04-30 08:27 | 10.60405 | 123.69607 | 9709 ft | 305 kts | 191° |
| 2026-04-30 08:27 | 10.58356 | 123.69038 | 9406 ft | 305 kts | 191° |
| 2026-04-30 08:27 | 10.56307 | 123.68468 | 9121 ft | 305 kts | 191° |
| 2026-04-30 08:28 | 10.54253 | 123.67897 | 8837 ft | 304 kts | 191° |
| 2026-04-30 08:28 | 10.52209 | 123.67329 | 8550 ft | 303 kts | 191° |
| 2026-04-30 08:28 | 10.50166 | 123.66760 | 8270 ft | 302 kts | 191° |
| 2026-04-30 08:28 | 10.48148 | 123.66200 | 7995 ft | 301 kts | 191° |
| 2026-04-30 08:29 | 10.46121 | 123.65636 | 7710 ft | 300 kts | 192° |
| 2026-04-30 08:29 | 10.44094 | 123.65073 | 7430 ft | 300 kts | 192° |
| 2026-04-30 08:29 | 10.42107 | 123.64520 | 7157 ft | 299 kts | 192° |
| 2026-04-30 08:29 | 10.40074 | 123.63954 | 6872 ft | 298 kts | 192° |
| 2026-04-30 08:30 | 10.38084 | 123.63400 | 6593 ft | 298 kts | 192° |
| 2026-04-30 08:30 | 10.36066 | 123.62870 | 6309 ft | 296 kts | 186° |
| 2026-04-30 08:30 | 10.34082 | 123.63025 | 5994 ft | 284 kts | 154° |
| 2026-04-30 08:30 | 10.32525 | 123.64172 | 5727 ft | 274 kts | 129° |
| 2026-04-30 08:31 | 10.31242 | 123.65597 | 5466 ft | 273 kts | 129° |
| 2026-04-30 08:31 | 10.29925 | 123.67014 | 5197 ft | 273 kts | 130° |
| 2026-04-30 08:31 | 10.28607 | 123.68394 | 4932 ft | 273 kts | 131° |
| 2026-04-30 08:31 | 10.27282 | 123.69759 | 4665 ft | 273 kts | 131° |
| 2026-04-30 08:32 | 10.25933 | 123.71139 | 4391 ft | 273 kts | 131° |
| 2026-04-30 08:32 | 10.24603 | 123.72494 | 4124 ft | 272 kts | 132° |
| 2026-04-30 08:32 | 10.23767 | 123.73343 | 4015 ft | 270 kts | 132° |
| 2026-04-30 08:32 | 10.22451 | 123.74678 | 3976 ft | 260 kts | 131° |
| 2026-04-30 08:33 | 10.21182 | 123.75967 | 3809 ft | 257 kts | 132° |
| 2026-04-30 08:33 | 10.19925 | 123.77244 | 3636 ft | 254 kts | 132° |
| 2026-04-30 08:33 | 10.18694 | 123.78494 | 3468 ft | 250 kts | 132° |
| 2026-04-30 08:33 | 10.17471 | 123.79736 | 3305 ft | 246 kts | 132° |
| 2026-04-30 08:34 | 10.16296 | 123.80994 | 3135 ft | 239 kts | 122° |
| 2026-04-30 08:34 | 10.15820 | 123.82520 | 2960 ft | 227 kts | 83° |
| 2026-04-30 08:34 | 10.16440 | 123.83929 | 2855 ft | 217 kts | 45° |
| 2026-04-30 08:34 | 10.17577 | 123.84905 | 2773 ft | 210 kts | 42° |
| 2026-04-30 08:35 | 10.18646 | 123.85870 | 2659 ft | 204 kts | 44° |
| 2026-04-30 08:35 | 10.19666 | 123.86847 | 2554 ft | 197 kts | 45° |
| 2026-04-30 08:35 | 10.20644 | 123.87807 | 2441 ft | 189 kts | 46° |
| 2026-04-30 08:35 | 10.21556 | 123.88711 | 2248 ft | 183 kts | 46° |
| 2026-04-30 08:36 | 10.22456 | 123.89611 | 1992 ft | 176 kts | 46° |
| 2026-04-30 08:36 | 10.23308 | 123.90463 | 1752 ft | 169 kts | 46° |
| 2026-04-30 08:36 | 10.24128 | 123.91286 | 1535 ft | 163 kts | 46° |
| 2026-04-30 08:36 | 10.24923 | 123.92086 | 1319 ft | 156 kts | 46° |
| 2026-04-30 08:37 | 10.25684 | 123.92851 | 1092 ft | 151 kts | 46° |
| 2026-04-30 08:37 | 10.26415 | 123.93584 | 864 ft | 147 kts | 46° |
| 2026-04-30 08:37 | 10.27142 | 123.94316 | 640 ft | 143 kts | 45° |
| 2026-04-30 08:37 | 10.27835 | 123.94999 | 452 ft | 137 kts | 44° |
| 2026-04-30 08:38 | 10.28503 | 123.95674 | 296 ft | 135 kts | 46° |
| 2026-04-30 08:38 | 10.29178 | 123.96354 | 197 ft | 136 kts | 45° |
| 2026-04-30 08:38 | 10.29838 | 123.97023 | 45 ft | 134 kts | 45° |
| 2026-04-30 08:38 | 10.30451 | 123.97646 | 36 ft | 106 kts | 44° |
| 2026-04-30 08:39 | 10.30855 | 123.98041 | 42 ft | 53 kts | 45° |
| 2026-04-30 08:39 | 10.31030 | 123.98216 | 41 ft | 16 kts | 44° |
| 2026-04-30 08:39 | 10.31114 | 123.98286 | 40 ft | 16 kts | 29° |
| 2026-04-30 08:39 | 10.31218 | 123.98325 | 40 ft | 15 kts | 18° |
| 2026-04-30 08:40 | 10.31291 | 123.98347 | 42 ft | 7 kts | 15° |
| 2026-04-30 08:40 | 10.31343 | 123.98352 | 42 ft | 3 kts | 345° |
| 2026-04-30 08:40 | 10.31349 | 123.98350 | 42 ft | 1 kts | 340° |
| 2026-04-30 08:40 | 10.31362 | 123.98343 | 42 ft | 2 kts | 330° |
| 2026-04-30 08:41 | 10.31385 | 123.98325 | 43 ft | 6 kts | 318° |
| 2026-04-30 08:41 | 10.31428 | 123.98283 | 44 ft | 10 kts | 314° |
| 2026-04-30 08:41 | 10.31482 | 123.98229 | 46 ft | 10 kts | 315° |
| 2026-04-30 08:41 | 10.31533 | 123.98178 | 48 ft | 9 kts | 316° |
| 2026-04-30 08:42 | 10.31561 | 123.98132 | 50 ft | 6 kts | 271° |
| 2026-04-30 08:42 | 10.31545 | 123.98088 | 50 ft | 6 kts | 233° |
| 2026-04-30 08:42 | 10.31511 | 123.98050 | 51 ft | 7 kts | 225° |
| 2026-04-30 08:42 | 10.31470 | 123.98010 | 51 ft | 6 kts | 228° |
| 2026-04-30 08:43 | 10.31468 | 123.97973 | 51 ft | 5 kts | 297° |
| 2026-04-30 08:43 | 10.31488 | 123.97948 | 52 ft | 4 kts | 312° |
| 2026-04-30 08:43 | 10.31500 | 123.97935 | 52 ft | 1 kts | 314° |
| 2026-04-30 08:43 | 10.31501 | 123.97934 | 52 ft | 0 kts | 314° |